createdAt,value
2023-05-11T00:02:12.055Z,10.00
2023-05-11T00:07:14.652Z,12.77
2023-05-11T00:12:17.564Z,14.30
2023-05-11T00:17:20.687Z,14.75
2023-05-11T00:22:23.220Z,11.55
2023-05-11T00:27:25.667Z,17.00
2023-05-11T00:32:28.321Z,13.43
2023-05-11T00:37:30.848Z,11.32
2023-05-11T00:42:33.733Z,6.82
2023-05-11T00:47:36.352Z,17.90
2023-05-11T00:52:39.206Z,14.32
2023-05-11T00:57:41.894Z,10.35
2023-05-11T01:02:45.485Z,9.18
2023-05-11T01:08:01.942Z,6.97
2023-05-11T01:13:33.763Z,7.45
2023-05-11T01:18:42.642Z,7.32
2023-05-11T01:24:21.053Z,6.72
2023-05-11T01:30:23.411Z,9.20
2023-05-11T01:35:28.295Z,7.55
2023-05-11T01:40:36.152Z,9.35
2023-05-11T01:45:45.480Z,12.43
2023-05-11T01:50:49.772Z,12.07
2023-05-11T01:55:52.982Z,7.20
2023-05-11T02:00:56.120Z,5.20
2023-05-11T02:05:59.938Z,7.50
2023-05-11T02:11:04.544Z,6.50
2023-05-11T02:21:12.724Z,11.98
2023-05-11T02:26:16.813Z,8.63
2023-05-11T02:31:30.422Z,7.05
2023-05-11T02:36:35.711Z,7.75
2023-05-11T02:41:46.201Z,9.02
2023-05-11T02:46:50.425Z,11.05
2023-05-11T02:51:54.924Z,11.38
2023-05-11T02:56:58.473Z,12.63
2023-05-11T03:02:01.286Z,8.65
2023-05-11T03:07:04.173Z,11.60
2023-05-11T03:12:07.417Z,9.07
2023-05-11T03:17:15.087Z,6.80
2023-05-11T03:22:18.406Z,6.88
2023-05-11T03:27:21.571Z,8.15
2023-05-11T03:32:24.539Z,14.13
2023-05-11T03:37:28.455Z,10.13
2023-05-11T03:42:34.697Z,8.88
2023-05-11T03:47:40.086Z,7.30
2023-05-11T03:52:43.874Z,4.82
2023-05-11T03:57:47.127Z,5.68
2023-05-11T04:02:49.785Z,10.20
2023-05-11T04:07:52.631Z,6.70
2023-05-11T04:12:55.295Z,5.60
2023-05-11T04:17:57.891Z,4.38
2023-05-11T04:23:00.665Z,6.93
2023-05-11T04:28:03.192Z,4.68
2023-05-11T04:33:05.793Z,7.22
2023-05-11T04:38:08.316Z,6.22
2023-05-11T04:43:10.923Z,9.20
2023-05-11T04:48:13.933Z,13.93
2023-05-11T04:53:16.618Z,5.85
2023-05-11T04:58:19.979Z,6.20
2023-05-11T05:03:22.667Z,3.78
2023-05-11T05:08:25.201Z,6.97
2023-05-11T05:13:27.666Z,5.55
2023-05-11T05:18:30.157Z,12.45
2023-05-11T05:23:32.621Z,6.55
2023-05-11T05:28:36.075Z,3.78
2023-05-11T05:33:39.982Z,3.95
2023-05-11T05:38:42.529Z,3.28
2023-05-11T05:43:45.137Z,6.93
2023-05-11T05:48:48.298Z,3.35
2023-05-11T05:53:50.877Z,7.80
2023-05-11T05:58:53.514Z,4.35
2023-05-11T06:03:56.528Z,8.43
2023-05-11T06:09:00.482Z,3.40
2023-05-11T06:14:03.639Z,4.32
2023-05-11T06:19:07.332Z,7.57
2023-05-11T06:24:10.052Z,14.27
2023-05-11T06:29:14.491Z,6.15
2023-05-11T06:34:17.213Z,8.45
2023-05-11T06:39:19.813Z,3.65
2023-05-11T06:44:22.602Z,4.65
2023-05-11T06:49:28.857Z,5.03
2023-05-11T06:54:32.035Z,6.18
2023-05-11T06:59:34.722Z,2.85
2023-05-11T07:04:37.379Z,3.95
2023-05-11T07:09:41.900Z,8.23
2023-05-11T07:14:44.679Z,3.55
2023-05-11T07:19:47.359Z,5.10
2023-05-11T07:24:50.032Z,2.78
2023-05-11T07:29:52.736Z,6.45
2023-05-11T07:34:55.168Z,4.10
2023-05-11T07:39:57.698Z,5.80
2023-05-11T07:45:00.272Z,6.63
2023-05-11T07:50:03.239Z,6.95
2023-05-11T07:55:06.471Z,7.72
2023-05-11T08:00:11.149Z,10.57
2023-05-11T08:05:19.899Z,4.65
2023-05-11T08:10:22.566Z,4.40
2023-05-11T08:15:25.087Z,6.28
2023-05-11T08:20:27.888Z,3.63
2023-05-11T08:25:30.481Z,5.55
2023-05-11T08:30:32.949Z,2.00
2023-05-11T08:35:35.647Z,2.95
2023-05-11T08:40:38.181Z,9.43
2023-05-11T08:45:47.823Z,4.95
2023-05-11T08:50:50.826Z,4.43
2023-05-11T08:55:58.242Z,7.68
2023-05-11T09:01:01.129Z,11.52
2023-05-11T09:06:07.496Z,6.82
2023-05-11T09:11:13.723Z,4.20
2023-05-11T09:16:28.843Z,2.60
2023-05-11T09:21:39.527Z,4.65
2023-05-11T09:26:42.117Z,2.47
2023-05-11T09:31:47.426Z,8.05
2023-05-11T09:36:53.565Z,3.80
2023-05-11T09:42:18.568Z,7.82
2023-05-11T09:47:22.679Z,7.00
2023-05-11T09:52:25.498Z,4.20
2023-05-11T09:57:31.976Z,6.47
2023-05-11T10:02:35.014Z,3.22
2023-05-11T10:07:38.427Z,3.20
2023-05-11T10:12:41.170Z,11.95
2023-05-11T10:17:44.962Z,4.93
2023-05-11T10:22:47.571Z,10.77
2023-05-11T10:27:50.553Z,5.43
2023-05-11T10:32:53.986Z,7.45
2023-05-11T10:37:56.740Z,5.25
2023-05-11T10:43:10.593Z,9.43
2023-05-11T10:48:24.401Z,8.90
2023-05-11T10:53:41.258Z,10.57
2023-05-11T10:59:17.385Z,6.15
2023-05-11T11:04:20.678Z,8.30
2023-05-11T11:09:23.261Z,8.63
2023-05-11T11:14:45.692Z,5.57
2023-05-11T11:19:48.196Z,6.28
2023-05-11T11:24:51.338Z,3.80
2023-05-11T11:30:20.433Z,4.65
2023-05-11T11:35:41.874Z,3.38
2023-05-11T11:40:52.804Z,3.97
2023-05-11T11:46:03.024Z,7.80
2023-05-11T11:51:10.549Z,13.15
2023-05-11T11:56:15.973Z,6.25
2023-05-11T12:01:25.998Z,5.72
2023-05-11T12:06:43.356Z,3.15
2023-05-11T12:11:47.988Z,7.28
2023-05-11T12:17:13.408Z,5.57
2023-05-11T12:22:21.665Z,4.10
2023-05-11T12:27:24.717Z,7.38
2023-05-11T12:32:29.913Z,2.60
2023-05-11T12:37:32.874Z,4.15
2023-05-11T12:42:35.621Z,3.78
2023-05-11T12:47:38.214Z,2.72
2023-05-11T12:52:44.011Z,4.03
2023-05-11T12:57:46.564Z,6.03
2023-05-11T13:08:14.796Z,7.07
2023-05-11T13:13:30.015Z,7.70
2023-05-11T13:18:32.626Z,7.80
2023-05-11T13:23:35.229Z,7.22
2023-05-11T13:28:37.730Z,8.68
2023-05-11T13:33:40.270Z,3.35
2023-05-11T13:38:43.318Z,3.42
2023-05-11T13:43:45.883Z,7.18
2023-05-11T13:48:49.071Z,7.57
2023-05-11T13:53:52.037Z,6.25
2023-05-11T13:58:54.593Z,4.10
2023-05-11T14:03:57.613Z,5.38
2023-05-11T14:09:13.971Z,6.95
2023-05-11T14:15:00.225Z,5.07
2023-05-11T14:19:54.899Z,10.45
2023-05-11T14:25:20.426Z,3.63
2023-05-11T14:30:29.559Z,3.28
2023-05-11T14:35:38.435Z,3.45
2023-05-11T14:48:18.984Z,11.32
2023-05-11T14:55:02.140Z,4.03
2023-05-11T15:00:05.468Z,11.48
2023-05-11T15:05:08.680Z,7.15
2023-05-11T15:10:11.364Z,4.30
2023-05-11T15:15:14.165Z,4.90
2023-05-11T15:20:19.696Z,6.20
2023-05-11T15:25:22.317Z,3.03
2023-05-11T15:30:24.893Z,5.13
2023-05-11T15:35:27.434Z,6.45
2023-05-11T15:40:30.398Z,7.85
2023-05-11T15:45:32.915Z,6.20
2023-05-11T15:50:36.150Z,3.45
2023-05-11T15:55:40.845Z,12.43
2023-05-11T16:00:43.643Z,7.22
2023-05-11T16:05:46.270Z,11.13
2023-05-11T16:10:48.688Z,3.10
2023-05-11T16:15:52.406Z,5.90
2023-05-11T16:20:54.816Z,16.20
2023-05-11T16:25:57.453Z,11.40
2023-05-11T16:31:00.460Z,9.38
2023-05-11T16:36:05.559Z,8.48
2023-05-11T16:41:08.161Z,5.60
2023-05-11T16:46:10.838Z,7.22
2023-05-11T16:51:13.380Z,7.72
2023-05-11T16:56:15.894Z,8.77
2023-05-11T17:01:18.401Z,5.22
2023-05-11T17:06:24.807Z,3.03
2023-05-11T17:11:27.340Z,6.57
2023-05-11T17:16:30.104Z,3.42
2023-05-11T17:21:32.654Z,22.85
2023-05-11T17:26:46.462Z,8.32
2023-05-11T17:31:51.895Z,6.07
2023-05-11T17:36:54.793Z,7.65
2023-05-11T17:41:57.235Z,8.35
2023-05-11T17:46:59.686Z,10.13
2023-05-11T17:52:02.339Z,4.25
2023-05-11T17:57:05.254Z,3.67
2023-05-11T18:02:08.063Z,3.67
2023-05-11T18:07:10.539Z,5.88
2023-05-11T18:12:13.149Z,10.23
2023-05-11T18:17:15.640Z,42.13
2023-05-11T18:22:18.251Z,17.85
2023-05-11T18:27:20.756Z,73.75
2023-05-11T18:32:23.235Z,172.52
2023-05-11T18:37:45.958Z,1285.18
2023-05-11T18:42:48.399Z,1197.10
2023-05-11T18:47:51.213Z,1422.93
2023-05-11T18:52:53.777Z,994.15
2023-05-11T18:57:57.927Z,981.42
2023-05-11T19:03:01.340Z,893.33
2023-05-11T19:08:04.025Z,840.00
2023-05-11T19:13:07.555Z,840.40
2023-05-11T19:18:10.500Z,1006.33
2023-05-11T19:23:13.189Z,602.45
2023-05-11T19:28:15.848Z,668.38
2023-05-11T19:33:18.433Z,705.25
2023-05-11T19:38:21.991Z,634.15
2023-05-11T19:43:24.535Z,508.27
2023-05-11T19:48:26.990Z,731.17
2023-05-11T19:53:32.666Z,999.47
2023-05-11T19:58:35.429Z,785.45
2023-05-11T20:03:38.048Z,662.20
2023-05-11T20:08:40.697Z,394.20
2023-05-11T20:13:44.406Z,224.45
2023-05-11T20:18:47.137Z,101.50
2023-05-11T20:23:50.292Z,33.25
2023-05-11T20:28:52.767Z,16.50
2023-05-11T20:39:00.612Z,19.15
2023-05-11T20:44:03.617Z,27.67
2023-05-11T20:49:06.186Z,19.27
2023-05-11T20:54:09.309Z,14.82
2023-05-11T21:00:03.739Z,18.33
2023-05-11T21:04:36.104Z,18.90
2023-05-11T21:09:38.562Z,23.77
2023-05-11T21:14:41.522Z,28.30
2023-05-11T21:19:43.947Z,29.08
2023-05-11T21:24:46.479Z,28.80
2023-05-11T21:29:49.253Z,32.45
2023-05-11T21:34:51.731Z,20.92
2023-05-11T21:39:54.163Z,12.82
2023-05-11T21:44:56.614Z,12.88
2023-05-11T21:49:59.513Z,15.25
2023-05-11T21:55:02.094Z,13.82
2023-05-11T22:00:05.391Z,28.00
2023-05-11T22:05:08.936Z,33.15
2023-05-11T22:10:12.701Z,15.55
2023-05-11T22:15:15.198Z,15.57
2023-05-11T22:20:18.135Z,17.55
2023-05-11T22:25:20.922Z,23.58
2023-05-11T22:30:23.479Z,19.40
2023-05-11T22:35:26.130Z,20.92
2023-05-11T22:40:28.660Z,13.93
2023-05-11T22:45:31.362Z,13.40
2023-05-11T22:50:33.993Z,21.98
2023-05-11T22:55:36.408Z,16.70
2023-05-11T23:00:38.923Z,21.42
2023-05-11T23:05:41.383Z,22.75
2023-05-11T23:10:43.783Z,13.75
2023-05-11T23:15:46.404Z,20.13
2023-05-11T23:20:48.839Z,15.13
2023-05-11T23:25:52.052Z,17.73
2023-05-11T23:30:54.512Z,17.42
2023-05-11T23:35:56.976Z,14.77
2023-05-11T23:40:59.536Z,18.65
2023-05-11T23:46:02.647Z,14.57
2023-05-11T23:51:05.159Z,15.15
2023-05-11T23:56:08.015Z,19.63
